sensor_id;sensor_type;location;lat;lon;timestamp;temperature;humidity
5940;DHT22;2995;-31.998;115.906;2023-04-25T00:00:35;11.30;99.90
5940;DHT22;2995;-31.998;115.906;2023-04-25T00:03:06;11.40;99.90
5940;DHT22;2995;-31.998;115.906;2023-04-25T00:05:37;11.40;99.90
5940;DHT22;2995;-31.998;115.906;2023-04-25T00:08:09;11.60;99.90
5940;DHT22;2995;-31.998;115.906;2023-04-25T00:10:40;11.60;99.90
5940;DHT22;2995;-31.998;115.906;2023-04-25T00:13:11;11.70;99.90
5940;DHT22;2995;-31.998;115.906;2023-04-25T00:15:47;11.80;99.90
5940;DHT22;2995;-31.998;115.906;2023-04-25T00:18:18;11.80;99.90
5940;DHT22;2995;-31.998;115.906;2023-04-25T00:20:50;11.90;99.90
5940;DHT22;2995;-31.998;115.906;2023-04-25T00:23:21;12.00;99.90
5940;DHT22;2995;-31.998;115.906;2023-04-25T00:25:52;12.10;99.90
5940;DHT22;2995;-31.998;115.906;2023-04-25T00:28:23;12.20;99.90
5940;DHT22;2995;-31.998;115.906;2023-04-25T00:30:57;12.20;99.90
5940;DHT22;2995;-31.998;115.906;2023-04-25T00:33:28;12.30;99.90
5940;DHT22;2995;-31.998;115.906;2023-04-25T00:36:00;12.40;99.90
5940;DHT22;2995;-31.998;115.906;2023-04-25T00:38:32;12.40;99.90
5940;DHT22;2995;-31.998;115.906;2023-04-25T00:41:03;12.50;99.90
5940;DHT22;2995;-31.998;115.906;2023-04-25T00:43:37;12.50;99.90
5940;DHT22;2995;-31.998;115.906;2023-04-25T00:46:10;12.50;99.90
5940;DHT22;2995;-31.998;115.906;2023-04-25T00:48:42;12.60;99.90
5940;DHT22;2995;-31.998;115.906;2023-04-25T00:51:15;12.70;99.90
5940;DHT22;2995;-31.998;115.906;2023-04-25T00:53:49;12.80;99.90
5940;DHT22;2995;-31.998;115.906;2023-04-25T00:56:21;12.80;99.90
5940;DHT22;2995;-31.998;115.906;2023-04-25T00:58:54;12.80;99.90
5940;DHT22;2995;-31.998;115.906;2023-04-25T01:01:29;12.90;99.90
5940;DHT22;2995;-31.998;115.906;2023-04-25T01:04:02;12.90;99.90
5940;DHT22;2995;-31.998;115.906;2023-04-25T01:09:05;13.10;99.90
5940;DHT22;2995;-31.998;115.906;2023-04-25T01:11:37;13.20;99.90
5940;DHT22;2995;-31.998;115.906;2023-04-25T01:14:09;13.30;99.90
5940;DHT22;2995;-31.998;115.906;2023-04-25T01:16:43;13.40;99.90
5940;DHT22;2995;-31.998;115.906;2023-04-25T01:19:17;13.60;99.90
5940;DHT22;2995;-31.998;115.906;2023-04-25T01:21:51;13.70;99.90
5940;DHT22;2995;-31.998;115.906;2023-04-25T01:24:23;13.70;99.90
5940;DHT22;2995;-31.998;115.906;2023-04-25T01:26:55;13.80;99.90
5940;DHT22;2995;-31.998;115.906;2023-04-25T01:29:27;13.80;99.90
5940;DHT22;2995;-31.998;115.906;2023-04-25T01:31:59;13.90;99.90
5940;DHT22;2995;-31.998;115.906;2023-04-25T01:34:31;13.90;99.90
5940;DHT22;2995;-31.998;115.906;2023-04-25T01:37:04;14.10;99.90
5940;DHT22;2995;-31.998;115.906;2023-04-25T01:39:36;14.30;99.90
5940;DHT22;2995;-31.998;115.906;2023-04-25T01:42:07;14.40;99.90
5940;DHT22;2995;-31.998;115.906;2023-04-25T01:44:38;14.60;99.90
5940;DHT22;2995;-31.998;115.906;2023-04-25T01:47:10;14.80;99.90
5940;DHT22;2995;-31.998;115.906;2023-04-25T01:49:41;14.80;99.90
5940;DHT22;2995;-31.998;115.906;2023-04-25T01:52:14;15.10;99.90
5940;DHT22;2995;-31.998;115.906;2023-04-25T01:54:45;15.10;99.90
5940;DHT22;2995;-31.998;115.906;2023-04-25T01:57:17;15.10;99.90
5940;DHT22;2995;-31.998;115.906;2023-04-25T01:59:48;15.20;99.90
5940;DHT22;2995;-31.998;115.906;2023-04-25T02:02:20;15.50;99.90
5940;DHT22;2995;-31.998;115.906;2023-04-25T02:04:51;15.60;99.90
5940;DHT22;2995;-31.998;115.906;2023-04-25T02:07:25;15.50;99.90
5940;DHT22;2995;-31.998;115.906;2023-04-25T02:09:57;15.50;99.90
5940;DHT22;2995;-31.998;115.906;2023-04-25T02:12:29;15.60;99.90
5940;DHT22;2995;-31.998;115.906;2023-04-25T02:15:03;15.70;99.90
5940;DHT22;2995;-31.998;115.906;2023-04-25T02:17:35;15.90;99.90
5940;DHT22;2995;-31.998;115.906;2023-04-25T02:20:07;16.20;99.90
5940;DHT22;2995;-31.998;115.906;2023-04-25T02:22:41;16.50;99.90
5940;DHT22;2995;-31.998;115.906;2023-04-25T02:25:12;16.80;99.90
5940;DHT22;2995;-31.998;115.906;2023-04-25T02:27:44;17.00;99.90
5940;DHT22;2995;-31.998;115.906;2023-04-25T02:30:15;17.10;99.90
5940;DHT22;2995;-31.998;115.906;2023-04-25T02:32:46;17.10;99.90
5940;DHT22;2995;-31.998;115.906;2023-04-25T02:35:18;17.20;99.90
5940;DHT22;2995;-31.998;115.906;2023-04-25T02:37:51;17.30;99.90
5940;DHT22;2995;-31.998;115.906;2023-04-25T02:40:22;17.50;99.90
5940;DHT22;2995;-31.998;115.906;2023-04-25T02:42:54;17.40;99.90
5940;DHT22;2995;-31.998;115.906;2023-04-25T02:45:26;17.40;99.90
5940;DHT22;2995;-31.998;115.906;2023-04-25T02:47:57;17.20;99.90
5940;DHT22;2995;-31.998;115.906;2023-04-25T02:50:28;17.00;99.90
5940;DHT22;2995;-31.998;115.906;2023-04-25T02:53:01;16.80;99.90
5940;DHT22;2995;-31.998;115.906;2023-04-25T02:55:33;16.70;99.90
5940;DHT22;2995;-31.998;115.906;2023-04-25T02:58:04;16.50;99.90
5940;DHT22;2995;-31.998;115.906;2023-04-25T03:00:36;15.90;99.90
5940;DHT22;2995;-31.998;115.906;2023-04-25T03:03:07;15.80;99.90
5940;DHT22;2995;-31.998;115.906;2023-04-25T03:05:38;15.50;99.90
5940;DHT22;2995;-31.998;115.906;2023-04-25T03:08:12;15.40;99.90
5940;DHT22;2995;-31.998;115.906;2023-04-25T03:10:43;15.40;99.90
5940;DHT22;2995;-31.998;115.906;2023-04-25T03:13:14;15.50;99.90
5940;DHT22;2995;-31.998;115.906;2023-04-25T03:15:46;15.70;99.90
5940;DHT22;2995;-31.998;115.906;2023-04-25T03:18:17;15.80;99.90
5940;DHT22;2995;-31.998;115.906;2023-04-25T03:20:48;15.90;99.90
5940;DHT22;2995;-31.998;115.906;2023-04-25T03:23:21;15.90;99.90
5940;DHT22;2995;-31.998;115.906;2023-04-25T03:25:53;15.90;99.90
5940;DHT22;2995;-31.998;115.906;2023-04-25T03:28:24;16.00;99.90
5940;DHT22;2995;-31.998;115.906;2023-04-25T03:30:55;16.10;99.90
5940;DHT22;2995;-31.998;115.906;2023-04-25T03:33:26;16.00;99.90
5940;DHT22;2995;-31.998;115.906;2023-04-25T03:35:58;16.00;99.90
5940;DHT22;2995;-31.998;115.906;2023-04-25T03:38:31;15.90;99.90
5940;DHT22;2995;-31.998;115.906;2023-04-25T03:41:03;16.00;99.90
5940;DHT22;2995;-31.998;115.906;2023-04-25T03:43:34;16.10;99.90
5940;DHT22;2995;-31.998;115.906;2023-04-25T03:46:06;16.20;99.90
5940;DHT22;2995;-31.998;115.906;2023-04-25T03:48:37;16.30;99.90
5940;DHT22;2995;-31.998;115.906;2023-04-25T03:51:09;16.20;99.90
5940;DHT22;2995;-31.998;115.906;2023-04-25T03:53:42;16.30;99.90
5940;DHT22;2995;-31.998;115.906;2023-04-25T03:56:13;16.40;99.90
5940;DHT22;2995;-31.998;115.906;2023-04-25T03:58:45;16.70;99.90
5940;DHT22;2995;-31.998;115.906;2023-04-25T04:01:16;16.80;99.90
5940;DHT22;2995;-31.998;115.906;2023-04-25T04:03:47;16.80;99.90
5940;DHT22;2995;-31.998;115.906;2023-04-25T04:06:18;16.90;99.90
5940;DHT22;2995;-31.998;115.906;2023-04-25T04:08:52;17.00;99.90
5940;DHT22;2995;-31.998;115.906;2023-04-25T04:11:23;16.90;99.90
5940;DHT22;2995;-31.998;115.906;2023-04-25T04:13:54;16.80;99.90
5940;DHT22;2995;-31.998;115.906;2023-04-25T04:16:26;16.80;99.90
5940;DHT22;2995;-31.998;115.906;2023-04-25T04:18:57;16.90;99.90
5940;DHT22;2995;-31.998;115.906;2023-04-25T04:21:28;16.90;99.90
5940;DHT22;2995;-31.998;115.906;2023-04-25T04:24:02;16.90;99.90
5940;DHT22;2995;-31.998;115.906;2023-04-25T04:26:34;17.00;99.90
5940;DHT22;2995;-31.998;115.906;2023-04-25T04:29:05;17.10;99.90
5940;DHT22;2995;-31.998;115.906;2023-04-25T04:31:36;17.30;99.90
5940;DHT22;2995;-31.998;115.906;2023-04-25T04:34:07;17.60;99.90
5940;DHT22;2995;-31.998;115.906;2023-04-25T04:36:39;17.80;99.90
5940;DHT22;2995;-31.998;115.906;2023-04-25T04:39:13;17.70;99.90
5940;DHT22;2995;-31.998;115.906;2023-04-25T04:41:45;17.30;99.90
5940;DHT22;2995;-31.998;115.906;2023-04-25T04:44:16;17.20;99.90
5940;DHT22;2995;-31.998;115.906;2023-04-25T04:46:47;17.10;99.90
5940;DHT22;2995;-31.998;115.906;2023-04-25T04:49:19;16.90;99.90
5940;DHT22;2995;-31.998;115.906;2023-04-25T04:51:50;16.90;99.90
5940;DHT22;2995;-31.998;115.906;2023-04-25T04:54:24;17.00;99.90
5940;DHT22;2995;-31.998;115.906;2023-04-25T04:56:55;17.20;99.90
5940;DHT22;2995;-31.998;115.906;2023-04-25T04:59:27;17.20;99.90
5940;DHT22;2995;-31.998;115.906;2023-04-25T05:01:58;17.40;99.90
5940;DHT22;2995;-31.998;115.906;2023-04-25T05:04:29;17.70;99.90
5940;DHT22;2995;-31.998;115.906;2023-04-25T05:07:01;18.10;99.90
5940;DHT22;2995;-31.998;115.906;2023-04-25T05:09:34;18.30;99.90
5940;DHT22;2995;-31.998;115.906;2023-04-25T05:12:06;18.20;99.90
5940;DHT22;2995;-31.998;115.906;2023-04-25T05:14:37;17.90;99.90
5940;DHT22;2995;-31.998;115.906;2023-04-25T05:17:08;17.80;99.90
5940;DHT22;2995;-31.998;115.906;2023-04-25T05:19:41;16.70;99.90
5940;DHT22;2995;-31.998;115.906;2023-04-25T05:22:12;16.20;99.90
5940;DHT22;2995;-31.998;115.906;2023-04-25T05:24:46;16.00;99.90
5940;DHT22;2995;-31.998;115.906;2023-04-25T05:27:21;15.90;99.90
5940;DHT22;2995;-31.998;115.906;2023-04-25T05:29:52;16.00;99.90
5940;DHT22;2995;-31.998;115.906;2023-04-25T05:32:23;16.20;99.90
5940;DHT22;2995;-31.998;115.906;2023-04-25T05:34:55;16.00;99.90
5940;DHT22;2995;-31.998;115.906;2023-04-25T05:37:26;15.90;99.90
5940;DHT22;2995;-31.998;115.906;2023-04-25T05:40:00;15.50;99.90
5940;DHT22;2995;-31.998;115.906;2023-04-25T05:42:34;15.70;99.90
5940;DHT22;2995;-31.998;115.906;2023-04-25T05:45:06;15.60;99.90
5940;DHT22;2995;-31.998;115.906;2023-04-25T05:47:38;15.60;99.90
5940;DHT22;2995;-31.998;115.906;2023-04-25T05:50:10;15.40;99.90
5940;DHT22;2995;-31.998;115.906;2023-04-25T05:52:41;15.20;99.90
5940;DHT22;2995;-31.998;115.906;2023-04-25T05:55:14;15.10;99.90
5940;DHT22;2995;-31.998;115.906;2023-04-25T05:57:46;15.00;99.90
5940;DHT22;2995;-31.998;115.906;2023-04-25T06:00:17;14.90;99.90
5940;DHT22;2995;-31.998;115.906;2023-04-25T06:02:50;15.10;99.90
5940;DHT22;2995;-31.998;115.906;2023-04-25T06:05:31;15.30;99.90
5940;DHT22;2995;-31.998;115.906;2023-04-25T06:08:02;15.50;99.90
5940;DHT22;2995;-31.998;115.906;2023-04-25T06:10:36;15.80;99.90
5940;DHT22;2995;-31.998;115.906;2023-04-25T06:13:07;15.90;99.90
5940;DHT22;2995;-31.998;115.906;2023-04-25T06:15:38;16.00;99.90
5940;DHT22;2995;-31.998;115.906;2023-04-25T06:18:11;15.80;99.90
5940;DHT22;2995;-31.998;115.906;2023-04-25T06:20:42;15.90;99.90
5940;DHT22;2995;-31.998;115.906;2023-04-25T06:23:13;15.90;99.90
5940;DHT22;2995;-31.998;115.906;2023-04-25T06:25:47;15.80;99.90
5940;DHT22;2995;-31.998;115.906;2023-04-25T06:28:18;15.70;99.90
5940;DHT22;2995;-31.998;115.906;2023-04-25T06:30:50;15.70;99.90
5940;DHT22;2995;-31.998;115.906;2023-04-25T06:33:22;15.70;99.90
5940;DHT22;2995;-31.998;115.906;2023-04-25T06:35:54;15.80;99.90
5940;DHT22;2995;-31.998;115.906;2023-04-25T06:38:26;16.00;99.90
5940;DHT22;2995;-31.998;115.906;2023-04-25T06:40:59;16.00;99.90
5940;DHT22;2995;-31.998;115.906;2023-04-25T06:43:32;16.10;99.90
5940;DHT22;2995;-31.998;115.906;2023-04-25T06:46:04;16.10;99.90
5940;DHT22;2995;-31.998;115.906;2023-04-25T06:48:36;16.20;99.90
5940;DHT22;2995;-31.998;115.906;2023-04-25T06:51:07;16.10;99.90
5940;DHT22;2995;-31.998;115.906;2023-04-25T06:53:39;16.20;99.90
5940;DHT22;2995;-31.998;115.906;2023-04-25T06:56:12;16.20;99.90
5940;DHT22;2995;-31.998;115.906;2023-04-25T06:58:44;16.20;99.90
5940;DHT22;2995;-31.998;115.906;2023-04-25T07:01:15;16.10;99.90
5940;DHT22;2995;-31.998;115.906;2023-04-25T07:03:46;15.90;99.90
5940;DHT22;2995;-31.998;115.906;2023-04-25T07:06:18;15.80;99.90
5940;DHT22;2995;-31.998;115.906;2023-04-25T07:08:49;15.70;99.90
5940;DHT22;2995;-31.998;115.906;2023-04-25T07:11:22;15.60;99.90
5940;DHT22;2995;-31.998;115.906;2023-04-25T07:13:54;15.70;99.90
5940;DHT22;2995;-31.998;115.906;2023-04-25T07:16:25;16.00;99.90
5940;DHT22;2995;-31.998;115.906;2023-04-25T07:18:57;16.00;99.90
5940;DHT22;2995;-31.998;115.906;2023-04-25T07:21:28;15.60;99.90
5940;DHT22;2995;-31.998;115.906;2023-04-25T07:24:00;15.30;99.90
5940;DHT22;2995;-31.998;115.906;2023-04-25T07:26:33;15.20;99.90
5940;DHT22;2995;-31.998;115.906;2023-04-25T07:29:04;15.10;99.90
5940;DHT22;2995;-31.998;115.906;2023-04-25T07:31:35;15.20;99.90
5940;DHT22;2995;-31.998;115.906;2023-04-25T07:34:07;15.30;99.90
5940;DHT22;2995;-31.998;115.906;2023-04-25T07:36:38;15.50;99.90
5940;DHT22;2995;-31.998;115.906;2023-04-25T07:39:10;15.40;99.90
5940;DHT22;2995;-31.998;115.906;2023-04-25T07:41:43;15.40;99.90
5940;DHT22;2995;-31.998;115.906;2023-04-25T07:44:15;15.60;99.90
5940;DHT22;2995;-31.998;115.906;2023-04-25T07:46:46;15.50;99.90
5940;DHT22;2995;-31.998;115.906;2023-04-25T07:49:17;15.30;99.90
5940;DHT22;2995;-31.998;115.906;2023-04-25T07:51:48;15.50;99.90
5940;DHT22;2995;-31.998;115.906;2023-04-25T07:54:20;15.50;99.90
5940;DHT22;2995;-31.998;115.906;2023-04-25T07:56:53;15.40;99.90
5940;DHT22;2995;-31.998;115.906;2023-04-25T07:59:24;15.50;99.90
5940;DHT22;2995;-31.998;115.906;2023-04-25T08:01:55;15.60;99.90
5940;DHT22;2995;-31.998;115.906;2023-04-25T08:04:27;15.50;99.90
5940;DHT22;2995;-31.998;115.906;2023-04-25T08:06:59;15.50;99.90
5940;DHT22;2995;-31.998;115.906;2023-04-25T08:09:30;15.30;99.90
5940;DHT22;2995;-31.998;115.906;2023-04-25T08:12:05;15.40;99.90
5940;DHT22;2995;-31.998;115.906;2023-04-25T08:14:37;15.50;99.90
5940;DHT22;2995;-31.998;115.906;2023-04-25T08:17:08;15.50;99.90
5940;DHT22;2995;-31.998;115.906;2023-04-25T08:19:39;15.50;99.90
5940;DHT22;2995;-31.998;115.906;2023-04-25T08:22:11;15.60;99.90
5940;DHT22;2995;-31.998;115.906;2023-04-25T08:24:43;15.60;99.90
5940;DHT22;2995;-31.998;115.906;2023-04-25T08:27:16;15.70;99.90
5940;DHT22;2995;-31.998;115.906;2023-04-25T08:29:48;15.80;99.90
5940;DHT22;2995;-31.998;115.906;2023-04-25T08:32:20;15.80;99.90
5940;DHT22;2995;-31.998;115.906;2023-04-25T08:34:52;15.80;99.90
5940;DHT22;2995;-31.998;115.906;2023-04-25T08:37:23;15.80;99.90
5940;DHT22;2995;-31.998;115.906;2023-04-25T08:39:55;15.80;99.90
5940;DHT22;2995;-31.998;115.906;2023-04-25T08:42:28;15.80;99.90
5940;DHT22;2995;-31.998;115.906;2023-04-25T08:45:02;15.80;99.90
5940;DHT22;2995;-31.998;115.906;2023-04-25T08:47:34;15.80;99.90
5940;DHT22;2995;-31.998;115.906;2023-04-25T08:50:07;15.90;99.90
5940;DHT22;2995;-31.998;115.906;2023-04-25T08:52:43;15.90;99.90
5940;DHT22;2995;-31.998;115.906;2023-04-25T08:55:15;15.90;99.90
5940;DHT22;2995;-31.998;115.906;2023-04-25T08:57:48;15.80;99.90
5940;DHT22;2995;-31.998;115.906;2023-04-25T09:00:20;15.80;99.90
5940;DHT22;2995;-31.998;115.906;2023-04-25T09:02:53;15.70;99.90
5940;DHT22;2995;-31.998;115.906;2023-04-25T09:05:24;15.70;99.90
5940;DHT22;2995;-31.998;115.906;2023-04-25T09:07:56;15.70;99.90
5940;DHT22;2995;-31.998;115.906;2023-04-25T09:10:29;15.70;99.90
5940;DHT22;2995;-31.998;115.906;2023-04-25T09:13:09;15.60;99.90
5940;DHT22;2995;-31.998;115.906;2023-04-25T09:15:50;15.60;99.90
5940;DHT22;2995;-31.998;115.906;2023-04-25T09:18:25;15.70;99.90
5940;DHT22;2995;-31.998;115.906;2023-04-25T09:20:58;15.60;99.90
5940;DHT22;2995;-31.998;115.906;2023-04-25T09:23:41;15.50;99.90
5940;DHT22;2995;-31.998;115.906;2023-04-25T09:26:15;15.50;99.90
5940;DHT22;2995;-31.998;115.906;2023-04-25T09:28:49;15.60;99.90
5940;DHT22;2995;-31.998;115.906;2023-04-25T09:31:23;15.50;99.90
5940;DHT22;2995;-31.998;115.906;2023-04-25T09:34:04;15.50;99.90
5940;DHT22;2995;-31.998;115.906;2023-04-25T09:36:40;15.50;99.90
5940;DHT22;2995;-31.998;115.906;2023-04-25T09:39:14;15.60;99.90
5940;DHT22;2995;-31.998;115.906;2023-04-25T09:41:47;15.60;99.90
5940;DHT22;2995;-31.998;115.906;2023-04-25T09:44:24;15.50;99.90
5940;DHT22;2995;-31.998;115.906;2023-04-25T09:46:55;15.50;99.90
5940;DHT22;2995;-31.998;115.906;2023-04-25T09:49:27;15.40;99.90
5940;DHT22;2995;-31.998;115.906;2023-04-25T09:51:59;15.40;99.90
5940;DHT22;2995;-31.998;115.906;2023-04-25T09:54:30;15.50;99.90
5940;DHT22;2995;-31.998;115.906;2023-04-25T09:57:10;15.20;99.90
5940;DHT22;2995;-31.998;115.906;2023-04-25T09:59:45;15.20;99.90
5940;DHT22;2995;-31.998;115.906;2023-04-25T10:02:18;15.00;99.90
5940;DHT22;2995;-31.998;115.906;2023-04-25T10:04:50;14.90;99.90
5940;DHT22;2995;-31.998;115.906;2023-04-25T10:07:23;14.90;99.90
5940;DHT22;2995;-31.998;115.906;2023-04-25T10:09:59;14.90;99.90
5940;DHT22;2995;-31.998;115.906;2023-04-25T10:12:32;14.80;99.90
5940;DHT22;2995;-31.998;115.906;2023-04-25T10:15:07;14.70;99.90
5940;DHT22;2995;-31.998;115.906;2023-04-25T10:17:40;14.70;99.90
5940;DHT22;2995;-31.998;115.906;2023-04-25T10:20:11;14.80;99.90
5940;DHT22;2995;-31.998;115.906;2023-04-25T10:22:44;14.90;99.90
5940;DHT22;2995;-31.998;115.906;2023-04-25T10:25:16;14.90;99.90
5940;DHT22;2995;-31.998;115.906;2023-04-25T10:27:47;15.00;99.90
5940;DHT22;2995;-31.998;115.906;2023-04-25T10:30:23;14.90;99.90
5940;DHT22;2995;-31.998;115.906;2023-04-25T10:32:56;14.90;99.90
5940;DHT22;2995;-31.998;115.906;2023-04-25T10:35:28;14.90;99.90
5940;DHT22;2995;-31.998;115.906;2023-04-25T10:38:03;15.00;99.90
5940;DHT22;2995;-31.998;115.906;2023-04-25T10:40:34;14.90;99.90
5940;DHT22;2995;-31.998;115.906;2023-04-25T10:43:35;14.90;99.90
5940;DHT22;2995;-31.998;115.906;2023-04-25T10:46:24;15.00;99.90
5940;DHT22;2995;-31.998;115.906;2023-04-25T10:48:56;15.00;99.90
5940;DHT22;2995;-31.998;115.906;2023-04-25T10:51:28;15.00;99.90
5940;DHT22;2995;-31.998;115.906;2023-04-25T10:54:00;15.00;99.90
5940;DHT22;2995;-31.998;115.906;2023-04-25T10:56:32;15.00;99.90
5940;DHT22;2995;-31.998;115.906;2023-04-25T10:59:08;15.00;99.90
5940;DHT22;2995;-31.998;115.906;2023-04-25T11:01:43;15.00;99.90
5940;DHT22;2995;-31.998;115.906;2023-04-25T11:04:24;15.00;99.90
5940;DHT22;2995;-31.998;115.906;2023-04-25T11:07:04;15.10;99.90
5940;DHT22;2995;-31.998;115.906;2023-04-25T11:09:37;15.00;99.90
5940;DHT22;2995;-31.998;115.906;2023-04-25T11:12:10;15.00;99.90
5940;DHT22;2995;-31.998;115.906;2023-04-25T11:14:42;14.90;99.90
5940;DHT22;2995;-31.998;115.906;2023-04-25T11:17:15;15.00;99.90
5940;DHT22;2995;-31.998;115.906;2023-04-25T11:19:49;14.90;99.90
5940;DHT22;2995;-31.998;115.906;2023-04-25T11:22:22;14.90;99.90
5940;DHT22;2995;-31.998;115.906;2023-04-25T11:24:54;14.80;99.90
5940;DHT22;2995;-31.998;115.906;2023-04-25T11:27:25;14.80;99.90
5940;DHT22;2995;-31.998;115.906;2023-04-25T11:29:56;14.90;99.90
5940;DHT22;2995;-31.998;115.906;2023-04-25T11:32:29;15.00;99.90
5940;DHT22;2995;-31.998;115.906;2023-04-25T11:35:01;15.00;99.90
5940;DHT22;2995;-31.998;115.906;2023-04-25T11:37:32;15.00;99.90
5940;DHT22;2995;-31.998;115.906;2023-04-25T11:40:05;15.00;99.90
5940;DHT22;2995;-31.998;115.906;2023-04-25T11:42:38;15.00;99.90
5940;DHT22;2995;-31.998;115.906;2023-04-25T11:45:12;15.10;99.90
5940;DHT22;2995;-31.998;115.906;2023-04-25T11:47:46;15.20;99.90
5940;DHT22;2995;-31.998;115.906;2023-04-25T11:50:17;15.30;99.90
5940;DHT22;2995;-31.998;115.906;2023-04-25T11:52:49;15.30;99.90
5940;DHT22;2995;-31.998;115.906;2023-04-25T11:55:21;15.30;99.90
5940;DHT22;2995;-31.998;115.906;2023-04-25T11:57:52;15.40;99.90
5940;DHT22;2995;-31.998;115.906;2023-04-25T12:00:24;15.50;99.90
5940;DHT22;2995;-31.998;115.906;2023-04-25T12:02:58;15.60;99.90
5940;DHT22;2995;-31.998;115.906;2023-04-25T12:05:31;15.60;99.90
5940;DHT22;2995;-31.998;115.906;2023-04-25T12:08:13;15.70;99.90
5940;DHT22;2995;-31.998;115.906;2023-04-25T12:10:45;15.70;99.90
5940;DHT22;2995;-31.998;115.906;2023-04-25T12:13:21;15.70;99.90
5940;DHT22;2995;-31.998;115.906;2023-04-25T12:15:54;15.70;99.90
5940;DHT22;2995;-31.998;115.906;2023-04-25T12:18:28;15.80;99.90
5940;DHT22;2995;-31.998;115.906;2023-04-25T12:20:59;15.70;99.90
5940;DHT22;2995;-31.998;115.906;2023-04-25T12:23:32;15.70;99.90
5940;DHT22;2995;-31.998;115.906;2023-04-25T12:26:04;15.70;99.90
5940;DHT22;2995;-31.998;115.906;2023-04-25T12:28:35;15.70;99.90
5940;DHT22;2995;-31.998;115.906;2023-04-25T12:31:07;15.70;99.90
5940;DHT22;2995;-31.998;115.906;2023-04-25T12:33:44;15.60;99.90
5940;DHT22;2995;-31.998;115.906;2023-04-25T12:36:15;15.50;99.90
5940;DHT22;2995;-31.998;115.906;2023-04-25T12:38:47;15.50;99.90
5940;DHT22;2995;-31.998;115.906;2023-04-25T12:41:18;15.40;99.90
5940;DHT22;2995;-31.998;115.906;2023-04-25T12:43:49;15.40;99.90
5940;DHT22;2995;-31.998;115.906;2023-04-25T12:46:21;15.40;99.90
5940;DHT22;2995;-31.998;115.906;2023-04-25T12:48:55;15.40;99.90
5940;DHT22;2995;-31.998;115.906;2023-04-25T12:51:26;15.30;99.90
5940;DHT22;2995;-31.998;115.906;2023-04-25T12:53:57;15.40;99.90
5940;DHT22;2995;-31.998;115.906;2023-04-25T12:56:29;15.40;99.90
5940;DHT22;2995;-31.998;115.906;2023-04-25T12:59:00;15.50;99.90
5940;DHT22;2995;-31.998;115.906;2023-04-25T13:01:32;15.50;99.90
5940;DHT22;2995;-31.998;115.906;2023-04-25T13:04:05;15.60;99.90
5940;DHT22;2995;-31.998;115.906;2023-04-25T13:06:37;15.60;99.90
5940;DHT22;2995;-31.998;115.906;2023-04-25T13:09:08;15.70;99.90
5940;DHT22;2995;-31.998;115.906;2023-04-25T13:11:40;15.80;99.90
5940;DHT22;2995;-31.998;115.906;2023-04-25T13:14:11;15.80;99.90
5940;DHT22;2995;-31.998;115.906;2023-04-25T13:16:43;15.60;99.90
5940;DHT22;2995;-31.998;115.906;2023-04-25T13:19:16;15.40;99.90
5940;DHT22;2995;-31.998;115.906;2023-04-25T13:21:47;15.20;99.90
5940;DHT22;2995;-31.998;115.906;2023-04-25T13:24:19;15.20;99.90
5940;DHT22;2995;-31.998;115.906;2023-04-25T13:26:50;15.20;99.90
5940;DHT22;2995;-31.998;115.906;2023-04-25T13:29:21;15.20;99.90
5940;DHT22;2995;-31.998;115.906;2023-04-25T13:31:53;15.30;99.90
5940;DHT22;2995;-31.998;115.906;2023-04-25T13:34:26;15.20;99.90
5940;DHT22;2995;-31.998;115.906;2023-04-25T13:36:57;15.30;99.90
5940;DHT22;2995;-31.998;115.906;2023-04-25T13:39:29;15.30;99.90
5940;DHT22;2995;-31.998;115.906;2023-04-25T13:42:00;15.10;99.90
5940;DHT22;2995;-31.998;115.906;2023-04-25T13:44:31;15.00;99.90
5940;DHT22;2995;-31.998;115.906;2023-04-25T13:47:02;15.10;99.90
5940;DHT22;2995;-31.998;115.906;2023-04-25T13:49:36;15.10;99.90
5940;DHT22;2995;-31.998;115.906;2023-04-25T13:52:07;15.20;99.90
5940;DHT22;2995;-31.998;115.906;2023-04-25T13:54:39;15.20;99.90
5940;DHT22;2995;-31.998;115.906;2023-04-25T13:57:11;15.10;99.90
5940;DHT22;2995;-31.998;115.906;2023-04-25T13:59:43;15.20;99.90
5940;DHT22;2995;-31.998;115.906;2023-04-25T14:02:14;15.20;99.90
5940;DHT22;2995;-31.998;115.906;2023-04-25T14:04:47;15.30;99.90
5940;DHT22;2995;-31.998;115.906;2023-04-25T14:07:19;15.40;99.90
5940;DHT22;2995;-31.998;115.906;2023-04-25T14:09:50;15.50;99.90
5940;DHT22;2995;-31.998;115.906;2023-04-25T14:12:21;15.50;99.90
5940;DHT22;2995;-31.998;115.906;2023-04-25T14:14:53;15.50;99.90
5940;DHT22;2995;-31.998;115.906;2023-04-25T14:17:24;15.40;99.90
5940;DHT22;2995;-31.998;115.906;2023-04-25T14:19:57;15.20;99.90
5940;DHT22;2995;-31.998;115.906;2023-04-25T14:22:28;15.20;99.90
5940;DHT22;2995;-31.998;115.906;2023-04-25T14:25:00;15.20;99.90
5940;DHT22;2995;-31.998;115.906;2023-04-25T14:27:31;15.10;99.90
5940;DHT22;2995;-31.998;115.906;2023-04-25T14:30:02;15.00;99.90
5940;DHT22;2995;-31.998;115.906;2023-04-25T14:32:34;14.90;99.90
5940;DHT22;2995;-31.998;115.906;2023-04-25T14:35:08;15.00;99.90
5940;DHT22;2995;-31.998;115.906;2023-04-25T14:37:40;15.00;99.90
5940;DHT22;2995;-31.998;115.906;2023-04-25T14:40:12;15.00;99.90
5940;DHT22;2995;-31.998;115.906;2023-04-25T14:42:45;15.00;99.90
5940;DHT22;2995;-31.998;115.906;2023-04-25T14:45:16;15.00;99.90
5940;DHT22;2995;-31.998;115.906;2023-04-25T14:47:47;15.10;99.90
5940;DHT22;2995;-31.998;115.906;2023-04-25T14:50:20;15.10;99.90
5940;DHT22;2995;-31.998;115.906;2023-04-25T14:52:52;15.20;99.90
5940;DHT22;2995;-31.998;115.906;2023-04-25T14:55:26;15.30;99.90
5940;DHT22;2995;-31.998;115.906;2023-04-25T14:57:58;15.30;99.90
5940;DHT22;2995;-31.998;115.906;2023-04-25T15:00:29;15.30;99.90
5940;DHT22;2995;-31.998;115.906;2023-04-25T15:03:01;15.30;99.90
5940;DHT22;2995;-31.998;115.906;2023-04-25T15:05:34;15.30;99.90
5940;DHT22;2995;-31.998;115.906;2023-04-25T15:08:05;15.30;99.90
5940;DHT22;2995;-31.998;115.906;2023-04-25T15:10:37;15.40;99.90
5940;DHT22;2995;-31.998;115.906;2023-04-25T15:13:08;15.40;99.90
5940;DHT22;2995;-31.998;115.906;2023-04-25T15:15:39;15.50;99.90
5940;DHT22;2995;-31.998;115.906;2023-04-25T15:18:11;15.50;99.90
5940;DHT22;2995;-31.998;115.906;2023-04-25T15:20:44;15.50;99.90
5940;DHT22;2995;-31.998;115.906;2023-04-25T15:23:16;15.50;99.90
5940;DHT22;2995;-31.998;115.906;2023-04-25T15:25:47;15.50;99.90
5940;DHT22;2995;-31.998;115.906;2023-04-25T15:28:18;15.50;99.90
5940;DHT22;2995;-31.998;115.906;2023-04-25T15:30:50;15.50;99.90
5940;DHT22;2995;-31.998;115.906;2023-04-25T15:33:21;15.60;99.90
5940;DHT22;2995;-31.998;115.906;2023-04-25T15:35:54;15.60;99.90
5940;DHT22;2995;-31.998;115.906;2023-04-25T15:38:25;15.60;99.90
5940;DHT22;2995;-31.998;115.906;2023-04-25T15:40:57;15.60;99.90
5940;DHT22;2995;-31.998;115.906;2023-04-25T15:43:28;15.60;99.90
5940;DHT22;2995;-31.998;115.906;2023-04-25T15:45:59;15.70;99.90
5940;DHT22;2995;-31.998;115.906;2023-04-25T15:48:31;15.70;99.90